createdAt,value
2022-12-19T00:01:38.166Z,8.70
2022-12-19T00:04:08.981Z,8.43
2022-12-19T00:06:38.024Z,8.57
2022-12-19T00:09:10.993Z,8.60
2022-12-19T00:11:38.764Z,8.57
2022-12-19T00:14:06.121Z,8.48
2022-12-19T00:16:33.464Z,7.40
2022-12-19T00:19:01.688Z,7.72
2022-12-19T00:21:34.804Z,8.73
2022-12-19T00:24:20.514Z,8.20
2022-12-19T00:26:49.257Z,7.88
2022-12-19T00:29:16.535Z,7.90
2022-12-19T00:31:44.755Z,7.28
2022-12-19T00:34:14.683Z,7.07
2022-12-19T00:36:41.588Z,7.25
2022-12-19T00:39:10.274Z,6.93
2022-12-19T00:41:41.901Z,7.13
2022-12-19T00:44:15.947Z,7.60
2022-12-19T00:46:44.562Z,6.75
2022-12-19T00:49:20.309Z,7.13
2022-12-19T00:51:47.216Z,6.38
2022-12-19T00:54:14.506Z,6.80
2022-12-19T00:56:42.248Z,6.40
2022-12-19T00:59:10.679Z,7.10
2022-12-19T01:01:41.354Z,5.93
2022-12-19T01:04:29.829Z,6.68
2022-12-19T01:07:02.118Z,6.57
2022-12-19T01:09:34.690Z,6.40
2022-12-19T01:12:23.995Z,6.13
2022-12-19T01:14:56.408Z,6.15
2022-12-19T01:17:35.508Z,5.78
2022-12-19T01:20:13.758Z,6.43
2022-12-19T01:22:40.654Z,5.10
2022-12-19T01:25:07.842Z,5.32
2022-12-19T01:27:34.843Z,5.10
2022-12-19T01:30:02.168Z,5.35
2022-12-19T01:32:29.134Z,4.97
2022-12-19T01:34:56.129Z,5.68
2022-12-19T01:37:23.010Z,5.03
2022-12-19T01:39:49.915Z,5.18
2022-12-19T01:42:23.497Z,4.07
2022-12-19T01:45:33.119Z,4.88
2022-12-19T01:48:11.413Z,4.80
2022-12-19T01:50:51.468Z,4.53
2022-12-19T01:53:35.773Z,3.97
2022-12-19T01:56:09.664Z,4.30
2022-12-19T01:58:39.788Z,4.43
2022-12-19T02:01:06.794Z,4.80
2022-12-19T02:03:36.172Z,4.07
2022-12-19T02:06:05.665Z,4.55
2022-12-19T02:08:34.689Z,4.10
2022-12-19T02:11:01.931Z,3.85
2022-12-19T02:13:30.069Z,3.80
2022-12-19T02:16:13.661Z,4.47
2022-12-19T02:18:52.888Z,4.38
2022-12-19T02:21:24.388Z,3.00
2022-12-19T02:24:14.377Z,3.80
2022-12-19T02:26:48.395Z,3.80
2022-12-19T02:29:42.620Z,3.90
2022-12-19T02:32:19.361Z,4.57
2022-12-19T02:34:53.698Z,4.30
2022-12-19T02:37:28.067Z,4.05
2022-12-19T02:40:06.789Z,3.60
2022-12-19T02:42:42.047Z,3.58
2022-12-19T02:45:11.820Z,4.07
2022-12-19T02:47:43.748Z,3.65
2022-12-19T02:50:12.083Z,3.15
2022-12-19T02:52:39.907Z,4.13
2022-12-19T02:55:11.168Z,4.43
2022-12-19T02:57:44.534Z,4.35
2022-12-19T03:00:19.955Z,3.40
2022-12-19T03:03:00.510Z,4.22
2022-12-19T03:05:51.630Z,3.80
2022-12-19T03:08:33.888Z,3.60
2022-12-19T03:11:05.203Z,4.07
2022-12-19T03:13:34.296Z,3.85
2022-12-19T03:16:03.430Z,3.30
2022-12-19T03:18:32.954Z,3.78
2022-12-19T03:21:15.624Z,3.75
2022-12-19T03:23:43.702Z,3.78
2022-12-19T03:26:16.101Z,4.20
2022-12-19T03:28:58.452Z,4.25
2022-12-19T03:31:29.185Z,4.43
2022-12-19T03:34:01.063Z,4.20
2022-12-19T03:36:33.439Z,4.35
2022-12-19T03:39:06.546Z,4.20
2022-12-19T03:41:56.359Z,4.00
2022-12-19T03:44:26.778Z,3.70
2022-12-19T03:47:22.530Z,3.58
2022-12-19T03:49:50.333Z,4.10
2022-12-19T03:52:32.324Z,4.10
2022-12-19T03:55:24.369Z,4.00
2022-12-19T03:57:58.623Z,3.40
2022-12-19T04:00:26.951Z,4.28
2022-12-19T04:02:56.604Z,3.65
2022-12-19T04:05:28.172Z,3.53
2022-12-19T04:08:03.103Z,3.40
2022-12-19T04:10:30.823Z,3.13
2022-12-19T04:13:08.692Z,3.00
2022-12-19T04:15:51.659Z,3.38
2022-12-19T04:18:20.806Z,3.17
2022-12-19T04:21:00.103Z,3.40
2022-12-19T04:23:45.465Z,3.28
2022-12-19T04:26:16.337Z,3.22
2022-12-19T04:28:50.867Z,3.05
2022-12-19T04:31:20.010Z,3.17
2022-12-19T04:33:46.971Z,3.90
2022-12-19T04:36:13.917Z,3.05
2022-12-19T04:38:41.087Z,3.47
2022-12-19T04:41:08.034Z,3.53
2022-12-19T04:43:35.020Z,3.40
2022-12-19T04:46:02.026Z,3.00
2022-12-19T04:48:28.947Z,3.47
2022-12-19T04:50:56.445Z,3.10
2022-12-19T04:53:23.348Z,3.38
2022-12-19T04:55:50.235Z,3.03
2022-12-19T04:58:21.674Z,3.40
2022-12-19T05:00:49.200Z,3.50
2022-12-19T05:03:16.094Z,3.40
2022-12-19T05:05:43.512Z,3.17
2022-12-19T05:08:10.481Z,3.60
2022-12-19T05:10:37.872Z,2.88
2022-12-19T05:13:04.818Z,3.17
2022-12-19T05:15:31.785Z,2.80
2022-12-19T05:17:58.641Z,3.33
2022-12-19T05:20:25.543Z,3.00
2022-12-19T05:22:52.506Z,2.85
2022-12-19T05:25:19.404Z,2.78
2022-12-19T05:27:46.334Z,2.83
2022-12-19T05:30:13.734Z,3.30
2022-12-19T05:32:40.611Z,3.03
2022-12-19T05:35:08.376Z,3.05
2022-12-19T05:37:35.322Z,2.60
2022-12-19T05:40:02.480Z,2.85
2022-12-19T05:42:29.421Z,3.20
2022-12-19T05:44:56.359Z,2.72
2022-12-19T05:47:23.244Z,2.85
2022-12-19T05:49:50.137Z,2.95
2022-12-19T05:52:17.092Z,3.20
2022-12-19T05:54:44.166Z,3.00
2022-12-19T05:57:11.241Z,2.95
2022-12-19T05:59:38.126Z,2.95
2022-12-19T06:02:05.192Z,2.92
2022-12-19T06:04:32.249Z,2.90
2022-12-19T06:06:59.204Z,3.20
2022-12-19T06:09:26.340Z,3.10
2022-12-19T06:11:53.520Z,2.75
2022-12-19T06:14:20.633Z,2.92
2022-12-19T06:16:47.574Z,3.17
2022-12-19T06:19:14.609Z,2.78
2022-12-19T06:21:47.926Z,2.97
2022-12-19T06:24:15.351Z,2.78
2022-12-19T06:26:42.435Z,3.22
2022-12-19T06:29:09.540Z,3.08
2022-12-19T06:31:36.481Z,2.83
2022-12-19T06:34:03.442Z,3.35
2022-12-19T06:36:31.221Z,2.90
2022-12-19T06:38:58.953Z,3.00
2022-12-19T06:41:45.014Z,2.80
2022-12-19T06:44:14.208Z,2.88
2022-12-19T06:46:42.244Z,2.85
2022-12-19T06:49:11.149Z,2.85
2022-12-19T06:51:38.119Z,3.10
2022-12-19T06:54:05.263Z,2.90
2022-12-19T06:56:37.930Z,2.95
2022-12-19T06:59:06.119Z,2.95
2022-12-19T07:01:57.092Z,3.08
2022-12-19T07:04:36.113Z,3.22
2022-12-19T07:07:03.390Z,2.60
2022-12-19T15:49:19.243Z,1.45
2022-12-19T15:51:47.222Z,2.00
2022-12-19T15:54:47.877Z,1.35
2022-12-19T15:57:03.132Z,2.20
2022-12-19T15:59:38.053Z,1.67
2022-12-19T16:02:16.184Z,1.70
2022-12-19T16:04:44.040Z,1.75
2022-12-19T16:07:19.472Z,1.52
2022-12-19T16:09:46.637Z,2.17
2022-12-19T16:12:20.472Z,1.63
2022-12-19T16:14:55.639Z,2.05
2022-12-19T16:17:24.434Z,1.60
2022-12-19T16:19:51.629Z,2.17
2022-12-19T16:22:27.723Z,1.67
2022-12-19T16:24:55.386Z,2.53
2022-12-19T16:27:28.501Z,1.98
2022-12-19T16:29:58.490Z,1.88
2022-12-19T16:32:25.520Z,2.00
2022-12-19T16:34:53.609Z,1.83
2022-12-19T16:37:20.873Z,1.73
2022-12-19T16:39:47.841Z,2.00
2022-12-19T16:42:18.465Z,2.45
2022-12-19T16:44:47.116Z,1.70
2022-12-19T16:47:16.656Z,1.95
2022-12-19T16:49:44.731Z,2.53
2022-12-19T16:52:11.833Z,1.85
2022-12-19T16:54:39.483Z,1.90
2022-12-19T16:57:15.984Z,2.25
2022-12-19T16:59:43.037Z,1.80
2022-12-19T17:02:37.164Z,1.98
2022-12-19T17:05:04.601Z,1.77
2022-12-19T17:07:32.257Z,2.20
2022-12-19T17:09:59.506Z,2.10
2022-12-19T17:12:28.408Z,1.92
2022-12-19T17:14:55.382Z,1.98
2022-12-19T17:17:22.352Z,2.13
2022-12-19T17:19:49.600Z,2.08
2022-12-19T17:22:18.884Z,1.52
2022-12-19T17:24:47.223Z,1.98
2022-12-19T17:27:14.476Z,2.00
2022-12-19T17:29:41.545Z,2.53
2022-12-19T17:32:19.983Z,1.90
2022-12-19T17:34:50.819Z,2.17
2022-12-19T17:37:17.999Z,2.00
2022-12-19T17:39:44.923Z,2.05
2022-12-19T17:42:20.516Z,2.38
2022-12-19T17:44:47.741Z,2.20
2022-12-19T17:47:19.857Z,2.35
2022-12-19T17:49:48.257Z,2.22
2022-12-19T17:52:19.967Z,2.60
2022-12-19T17:54:47.494Z,2.20
2022-12-19T17:57:16.190Z,1.98
2022-12-19T17:59:43.533Z,2.38
2022-12-19T18:02:28.689Z,2.00
2022-12-19T18:04:58.233Z,1.98
2022-12-19T18:07:25.271Z,2.28
2022-12-19T18:09:52.232Z,2.20
2022-12-19T18:12:19.397Z,2.50
2022-12-19T18:14:46.443Z,2.15
2022-12-19T18:17:17.579Z,2.35
2022-12-19T18:19:44.596Z,2.22
2022-12-19T18:22:14.758Z,2.40
2022-12-19T18:24:42.166Z,2.40
2022-12-19T18:27:09.288Z,2.13
2022-12-19T18:29:37.240Z,2.30
2022-12-19T18:32:04.533Z,2.60
2022-12-19T18:34:36.201Z,2.78
2022-12-19T18:37:05.616Z,2.53
2022-12-19T18:39:33.656Z,2.65
2022-12-19T18:42:00.663Z,2.65
2022-12-19T18:44:27.642Z,2.15
2022-12-19T18:46:54.629Z,2.35
2022-12-19T18:49:22.946Z,2.60
2022-12-19T18:51:50.315Z,2.25
2022-12-19T18:54:19.988Z,2.80
2022-12-19T18:56:47.348Z,2.00
2022-12-19T18:59:15.043Z,2.60
2022-12-19T19:01:44.583Z,2.22
2022-12-19T19:04:15.139Z,2.45
2022-12-19T19:06:50.453Z,1.75
2022-12-19T19:09:20.059Z,2.63
2022-12-19T19:12:06.143Z,2.08
2022-12-19T19:14:33.048Z,2.33
2022-12-19T19:17:01.371Z,2.17
2022-12-19T19:19:28.425Z,2.40
2022-12-19T19:21:58.184Z,2.13
2022-12-19T19:24:25.465Z,2.40
2022-12-19T19:26:52.457Z,1.98
2022-12-19T19:29:19.885Z,2.20
2022-12-19T19:31:50.233Z,2.13
2022-12-19T19:34:31.708Z,2.25
2022-12-19T19:37:02.285Z,2.75
2022-12-19T19:39:32.978Z,2.53
2022-12-19T19:42:01.267Z,2.03
2022-12-19T19:44:28.860Z,2.42
2022-12-19T19:46:56.045Z,2.13
2022-12-19T19:49:23.587Z,2.03
2022-12-19T19:51:50.557Z,1.90
2022-12-19T19:54:17.753Z,2.28
2022-12-19T19:56:44.699Z,1.92
2022-12-19T19:59:11.608Z,2.13
2022-12-19T20:01:38.798Z,2.10
2022-12-19T20:04:06.102Z,1.98
2022-12-19T20:06:33.238Z,2.15
2022-12-19T20:09:00.172Z,2.22
2022-12-19T20:11:27.137Z,1.60
2022-12-19T20:13:54.121Z,2.10
2022-12-19T20:16:21.241Z,2.22
2022-12-19T20:18:52.766Z,2.00
2022-12-19T20:21:20.548Z,2.03
2022-12-19T20:23:47.733Z,1.80
2022-12-19T20:26:16.508Z,1.80
2022-12-19T20:28:48.823Z,1.75
2022-12-19T20:31:18.527Z,1.70
2022-12-19T20:33:46.417Z,1.77
2022-12-19T20:36:14.255Z,1.70
2022-12-19T20:38:41.689Z,1.60
2022-12-19T20:41:09.053Z,2.13
2022-12-19T20:43:38.535Z,2.10
2022-12-19T20:46:16.789Z,1.95
2022-12-19T20:48:45.013Z,1.80
2022-12-19T20:51:13.846Z,1.70
2022-12-19T20:53:41.704Z,1.52
2022-12-19T20:56:11.998Z,1.60
2022-12-19T20:58:39.075Z,1.48
2022-12-19T21:01:12.410Z,1.83
2022-12-19T21:03:40.504Z,1.58
2022-12-19T21:06:14.161Z,3.60
2022-12-19T21:08:45.701Z,5.22
2022-12-19T21:11:15.680Z,10.27
2022-12-19T21:13:43.088Z,11.18
2022-12-19T21:16:14.010Z,9.43
2022-12-19T21:18:42.882Z,10.40
2022-12-19T21:21:18.212Z,8.90
2022-12-19T21:23:45.994Z,6.65
2022-12-19T21:26:13.160Z,9.05
2022-12-19T21:28:40.526Z,7.63
2022-12-19T21:31:20.803Z,8.75
2022-12-19T21:33:48.510Z,7.47
2022-12-19T21:36:20.697Z,8.45
2022-12-19T21:38:49.837Z,7.32
2022-12-19T21:41:18.808Z,6.35
2022-12-19T21:43:48.987Z,6.32
2022-12-19T21:46:17.977Z,8.27
2022-12-19T21:48:47.561Z,6.25
2022-12-19T21:51:16.494Z,6.78
2022-12-19T21:53:43.538Z,5.53
2022-12-19T21:56:26.975Z,6.82
2022-12-19T21:58:56.703Z,5.47
2022-12-19T22:01:27.964Z,4.97
2022-12-19T22:04:06.388Z,6.38
2022-12-19T22:06:35.783Z,4.68
2022-12-19T22:09:04.475Z,3.78
2022-12-19T22:11:31.551Z,4.10
2022-12-19T22:14:00.325Z,2.97
2022-12-19T22:16:28.181Z,4.47
2022-12-19T22:18:56.478Z,4.40
2022-12-19T22:21:26.416Z,5.22
2022-12-19T22:23:59.812Z,3.65
2022-12-19T22:26:28.750Z,4.75
2022-12-19T22:28:56.971Z,4.43
2022-12-19T22:31:33.289Z,4.13
2022-12-19T22:34:05.605Z,4.20
2022-12-19T22:36:35.899Z,4.20
2022-12-19T22:39:05.727Z,4.47
2022-12-19T22:41:34.574Z,3.45
2022-12-19T22:44:02.014Z,4.45
2022-12-19T22:46:34.857Z,2.83
2022-12-19T22:49:04.801Z,2.65
2022-12-19T22:51:36.743Z,3.58
2022-12-19T22:54:05.488Z,3.85
2022-12-19T22:56:33.701Z,3.65
2022-12-19T22:59:03.806Z,3.40
2022-12-19T23:01:37.038Z,2.70
2022-12-19T23:04:05.849Z,3.10
2022-12-19T23:06:35.107Z,3.13
2022-12-19T23:09:02.663Z,3.30
2022-12-19T23:11:35.444Z,3.53
2022-12-19T23:14:04.903Z,2.70
2022-12-19T23:16:31.887Z,3.03
2022-12-19T23:18:58.963Z,2.78
2022-12-19T23:21:26.809Z,2.50
2022-12-19T23:23:55.369Z,2.70
2022-12-19T23:26:26.524Z,2.72
2022-12-19T23:28:59.448Z,2.92
2022-12-19T23:31:27.395Z,2.75
2022-12-19T23:33:55.116Z,2.78
2022-12-19T23:36:45.092Z,2.72
2022-12-19T23:39:11.128Z,2.78
2022-12-19T23:41:38.555Z,2.80
2022-12-19T23:44:05.669Z,2.40
2022-12-19T23:46:32.658Z,2.90
2022-12-19T23:48:59.860Z,2.53
2022-12-19T23:51:27.976Z,2.50
2022-12-19T23:53:56.257Z,2.25
2022-12-19T23:56:28.520Z,2.50
2022-12-19T23:58:56.477Z,2.45
